createdAt,value
2023-05-08T00:00:55.822Z,242.17
2023-05-08T00:01:55.844Z,243.38
2023-05-08T00:02:55.908Z,242.99
2023-05-08T00:03:56.084Z,242.55
2023-05-08T00:04:56.015Z,243.80
2023-05-08T00:05:55.980Z,243.40
2023-05-08T00:06:55.917Z,242.94
2023-05-08T00:07:55.950Z,244.51
2023-05-08T00:08:56.045Z,243.42
2023-05-08T00:09:56.046Z,244.04
2023-05-08T00:10:56.154Z,243.14
2023-05-08T00:11:56.245Z,243.53
2023-05-08T00:12:56.224Z,243.42
2023-05-08T00:13:56.263Z,244.16
2023-05-08T00:14:56.343Z,245.74
2023-05-08T00:15:56.405Z,246.41
2023-05-08T00:16:56.447Z,245.38
2023-05-08T00:17:56.512Z,245.00
2023-05-08T00:18:56.514Z,245.23
2023-05-08T00:19:56.527Z,245.46
2023-05-08T00:20:57.150Z,245.62
2023-05-08T00:21:56.661Z,247.82
2023-05-08T00:22:56.642Z,249.15
2023-05-08T00:23:56.706Z,247.61
2023-05-08T00:24:56.716Z,245.51
2023-05-08T00:25:56.829Z,243.52
2023-05-08T00:26:56.847Z,242.67
2023-05-08T00:27:56.884Z,241.73
2023-05-08T00:28:56.995Z,241.33
2023-05-08T00:29:57.123Z,241.56
2023-05-08T00:30:57.050Z,243.97
2023-05-08T00:31:57.134Z,244.54
2023-05-08T00:32:57.223Z,247.13
2023-05-08T00:33:57.134Z,247.89
2023-05-08T00:34:57.249Z,249.92
2023-05-08T00:35:57.294Z,248.05
2023-05-08T00:36:57.294Z,248.28
2023-05-08T00:37:57.362Z,248.72
2023-05-08T00:38:57.341Z,246.73
2023-05-08T00:39:57.433Z,245.40
2023-05-08T00:40:57.434Z,242.11
2023-05-08T00:41:57.478Z,241.66
2023-05-08T00:42:57.518Z,242.44
2023-05-08T00:43:57.540Z,244.40
2023-05-08T00:44:57.596Z,241.65
2023-05-08T00:45:57.626Z,241.61
2023-05-08T00:46:57.636Z,242.48
2023-05-08T00:47:57.685Z,238.44
2023-05-08T00:48:57.689Z,237.08
2023-05-08T00:49:57.709Z,239.32
2023-05-08T00:50:57.683Z,239.14
2023-05-08T00:51:57.720Z,238.15
2023-05-08T00:52:57.710Z,238.22
2023-05-08T00:53:57.795Z,240.12
2023-05-08T00:54:57.936Z,238.65
2023-05-08T00:55:57.879Z,238.62
2023-05-08T00:56:57.996Z,238.73
2023-05-08T00:57:57.957Z,237.90
2023-05-08T00:58:58.025Z,238.48
2023-05-08T00:59:58.063Z,242.08
2023-05-08T01:00:58.064Z,241.55
2023-05-08T01:01:58.141Z,239.30
2023-05-08T01:02:58.157Z,238.64
2023-05-08T01:03:58.181Z,239.12
2023-05-08T01:04:58.287Z,238.65
2023-05-08T01:06:00.225Z,240.94
2023-05-08T01:06:58.275Z,239.65
2023-05-08T01:07:58.304Z,235.56
2023-05-08T01:08:58.317Z,236.36
2023-05-08T01:09:58.320Z,234.81
2023-05-08T01:10:58.392Z,233.18
2023-05-08T01:11:58.436Z,234.32
2023-05-08T01:12:58.488Z,231.41
2023-05-08T01:13:58.558Z,229.97
2023-05-08T01:14:58.527Z,229.69
2023-05-08T01:15:59.172Z,230.22
2023-05-08T01:16:58.617Z,233.05
2023-05-08T01:17:58.636Z,232.81
2023-05-08T01:18:58.598Z,233.75
2023-05-08T01:19:58.664Z,235.87
2023-05-08T01:20:58.674Z,235.54
2023-05-08T01:21:58.712Z,234.59
2023-05-08T01:22:58.736Z,234.12
2023-05-08T01:23:58.775Z,233.95
2023-05-08T01:24:58.809Z,229.33
2023-05-08T01:25:58.897Z,228.23
2023-05-08T01:26:58.914Z,230.59
2023-05-08T01:27:58.847Z,233.90
2023-05-08T01:28:58.918Z,234.13
2023-05-08T01:29:58.922Z,229.39
2023-05-08T01:30:58.944Z,230.59
2023-05-08T01:31:58.988Z,231.04
2023-05-08T01:32:59.083Z,226.04
2023-05-08T01:33:59.128Z,225.91
2023-05-08T01:34:59.120Z,227.75
2023-05-08T01:35:59.138Z,227.12
2023-05-08T01:36:59.668Z,227.93
2023-05-08T01:37:59.246Z,228.80
2023-05-08T01:38:59.259Z,230.06
2023-05-08T01:39:59.331Z,230.38
2023-05-08T01:40:59.283Z,232.45
2023-05-08T01:41:59.310Z,235.01
2023-05-08T01:42:59.373Z,234.99
2023-05-08T01:43:59.412Z,231.85
2023-05-08T01:44:59.416Z,231.47
2023-05-08T01:45:59.540Z,230.52
2023-05-08T01:46:59.534Z,231.20
2023-05-08T01:47:59.629Z,229.72
2023-05-08T01:49:00.178Z,229.76
2023-05-08T01:49:59.580Z,232.02
2023-05-08T01:50:59.570Z,234.98
2023-05-08T01:51:59.589Z,234.20
2023-05-08T01:52:59.621Z,230.32
2023-05-08T01:53:59.674Z,231.15
2023-05-08T01:54:59.707Z,232.80
2023-05-08T01:55:59.716Z,236.96
2023-05-08T01:56:59.752Z,237.10
2023-05-08T01:57:59.775Z,238.56
2023-05-08T01:58:59.782Z,242.21
2023-05-08T01:59:59.826Z,240.91
2023-05-08T02:00:59.929Z,237.34
2023-05-08T02:02:00.242Z,237.24
2023-05-08T02:02:59.916Z,240.58
2023-05-08T02:03:59.922Z,240.88
2023-05-08T02:04:59.970Z,243.88
2023-05-08T02:05:59.938Z,244.41
2023-05-08T02:07:00.011Z,247.06
2023-05-08T02:07:59.993Z,250.00
2023-05-08T02:09:00.011Z,249.80
2023-05-08T02:10:00.089Z,250.73
2023-05-08T02:11:00.064Z,252.40
2023-05-08T02:12:00.121Z,251.39
2023-05-08T02:13:00.176Z,249.31
2023-05-08T02:14:00.148Z,248.33
2023-05-08T02:15:00.145Z,245.19
2023-05-08T02:16:00.196Z,242.84
2023-05-08T02:17:01.194Z,242.66
2023-05-08T02:18:00.306Z,246.04
2023-05-08T02:19:00.267Z,250.00
2023-05-08T02:20:00.297Z,249.43
2023-05-08T02:21:00.292Z,249.46
2023-05-08T02:22:00.409Z,247.48
2023-05-08T02:23:00.332Z,246.27
2023-05-08T02:24:00.354Z,246.41
2023-05-08T02:25:00.376Z,246.84
2023-05-08T02:26:00.424Z,244.36
2023-05-08T02:27:00.473Z,240.15
2023-05-08T02:28:00.488Z,239.22
2023-05-08T02:29:00.522Z,237.90
2023-05-08T02:30:00.599Z,241.02
2023-05-08T02:31:00.575Z,243.71
2023-05-08T02:32:00.627Z,238.90
2023-05-08T02:33:01.011Z,240.11
2023-05-08T02:34:00.677Z,246.37
2023-05-08T02:35:03.500Z,249.69
2023-05-08T02:36:00.701Z,247.73
2023-05-08T02:37:00.707Z,244.77
2023-05-08T02:38:00.709Z,244.62
2023-05-08T02:39:00.698Z,243.13
2023-05-08T02:40:00.713Z,243.51
2023-05-08T02:41:00.716Z,245.75
2023-05-08T02:42:00.707Z,247.46
2023-05-08T02:43:00.681Z,250.52
2023-05-08T02:44:00.632Z,251.32
2023-05-08T02:45:00.652Z,247.69
2023-05-08T02:46:00.737Z,244.81
2023-05-08T02:47:00.655Z,245.82
2023-05-08T02:48:00.687Z,243.60
2023-05-08T02:49:00.614Z,241.71
2023-05-08T02:50:00.680Z,242.35
2023-05-08T02:51:00.620Z,243.60
2023-05-08T02:52:00.614Z,242.03
2023-05-08T02:53:00.604Z,240.43
2023-05-08T02:54:00.555Z,240.53
2023-05-08T02:55:00.723Z,241.16
2023-05-08T02:56:00.582Z,239.80
2023-05-08T02:57:00.565Z,240.31
2023-05-08T02:58:00.591Z,243.42
2023-05-08T02:59:00.660Z,249.15
2023-05-08T03:00:00.611Z,250.42
2023-05-08T03:01:00.651Z,248.44
2023-05-08T03:02:00.557Z,247.61
2023-05-08T03:03:00.595Z,250.27
2023-05-08T03:04:00.596Z,250.45
2023-05-08T03:05:00.501Z,250.15
2023-05-08T03:06:00.581Z,249.70
2023-05-08T03:07:00.530Z,246.44
2023-05-08T03:08:00.496Z,247.46
2023-05-08T03:09:00.476Z,248.14
2023-05-08T03:10:00.504Z,248.85
2023-05-08T03:11:00.467Z,247.39
2023-05-08T03:12:00.693Z,248.96
2023-05-08T03:13:00.535Z,246.81
2023-05-08T03:14:00.524Z,244.82
2023-05-08T03:15:00.559Z,245.42
2023-05-08T03:16:00.486Z,241.99
2023-05-08T03:17:00.422Z,242.03
2023-05-08T03:18:00.482Z,242.83
2023-05-08T03:19:00.408Z,240.79
2023-05-08T03:20:00.427Z,236.52
2023-05-08T03:21:00.418Z,236.02
2023-05-08T03:22:00.409Z,235.35
2023-05-08T03:23:00.376Z,235.69
2023-05-08T03:24:00.361Z,234.77
2023-05-08T03:25:00.392Z,234.32
2023-05-08T03:26:00.354Z,233.21
2023-05-08T03:27:00.350Z,234.50
2023-05-08T03:28:00.379Z,232.55
2023-05-08T03:29:00.344Z,232.73
2023-05-08T03:30:00.362Z,233.55
2023-05-08T03:31:00.356Z,232.94
2023-05-08T03:32:00.396Z,230.76
2023-05-08T03:33:00.459Z,229.68
2023-05-08T03:34:00.446Z,229.03
2023-05-08T03:35:00.435Z,228.19
2023-05-08T03:36:01.228Z,230.11
2023-05-08T03:37:00.504Z,233.16
2023-05-08T03:38:00.525Z,233.93
2023-05-08T03:39:00.483Z,234.25
2023-05-08T03:40:00.491Z,234.95
2023-05-08T03:41:00.558Z,235.61
2023-05-08T03:42:00.579Z,237.69
2023-05-08T03:43:00.559Z,238.55
2023-05-08T03:44:00.606Z,236.97
2023-05-08T03:45:00.580Z,235.81
2023-05-08T03:46:00.606Z,236.07
2023-05-08T03:47:00.705Z,237.55
2023-05-08T03:48:00.719Z,236.96
2023-05-08T03:49:00.672Z,236.12
2023-05-08T03:50:00.718Z,238.36
2023-05-08T03:51:00.744Z,239.61
2023-05-08T03:52:00.764Z,239.39
2023-05-08T03:53:00.783Z,240.94
2023-05-08T03:54:00.854Z,242.93
2023-05-08T03:55:00.875Z,242.90
2023-05-08T03:56:00.960Z,245.01
2023-05-08T03:57:00.956Z,244.42
2023-05-08T03:58:01.008Z,244.26
2023-05-08T03:59:01.075Z,245.21
2023-05-08T04:00:01.186Z,241.82
2023-05-08T04:01:01.142Z,237.06
2023-05-08T04:02:01.266Z,233.43
2023-05-08T04:03:01.262Z,228.84
2023-05-08T04:04:01.194Z,229.37
2023-05-08T04:05:01.137Z,229.80
2023-05-08T04:06:01.245Z,226.56
2023-05-08T04:07:01.215Z,227.54
2023-05-08T04:08:01.267Z,226.46
2023-05-08T04:09:01.360Z,221.20
2023-05-08T04:10:01.377Z,220.00
2023-05-08T04:11:01.436Z,214.17
2023-05-08T04:12:01.483Z,210.25
2023-05-08T04:13:01.612Z,207.05
2023-05-08T04:14:01.540Z,207.14
2023-05-08T04:15:01.642Z,207.95
2023-05-08T04:16:01.678Z,209.53
2023-05-08T04:17:01.785Z,209.82
2023-05-08T04:18:01.805Z,207.65
2023-05-08T04:19:01.785Z,208.16
2023-05-08T04:20:01.894Z,212.54
2023-05-08T04:21:01.884Z,213.19
2023-05-08T04:22:01.961Z,215.71
2023-05-08T04:23:01.966Z,221.23
2023-05-08T04:24:02.039Z,217.65
2023-05-08T04:25:02.060Z,222.19
2023-05-08T04:26:03.657Z,228.25
2023-05-08T04:27:02.042Z,231.43
2023-05-08T04:28:02.009Z,231.63
2023-05-08T04:29:02.037Z,237.53
2023-05-08T04:30:02.010Z,241.57
2023-05-08T04:31:02.005Z,237.45
2023-05-08T04:32:02.113Z,236.93
2023-05-08T04:33:02.069Z,229.63
2023-05-08T04:34:01.976Z,222.18
2023-05-08T04:35:02.249Z,228.56
2023-05-08T04:36:01.987Z,221.94
2023-05-08T04:37:02.024Z,218.83
2023-05-08T04:38:01.954Z,216.13
2023-05-08T04:39:01.958Z,213.55
2023-05-08T04:40:01.972Z,209.15
2023-05-08T04:41:01.980Z,211.61
2023-05-08T04:42:01.961Z,215.19
2023-05-08T04:43:01.933Z,220.28
2023-05-08T04:44:01.909Z,218.50
2023-05-08T04:45:01.925Z,218.80
2023-05-08T04:46:01.943Z,217.81
2023-05-08T04:47:01.973Z,213.35
2023-05-08T04:48:01.889Z,213.04
2023-05-08T04:49:01.902Z,215.25
2023-05-08T04:50:03.048Z,216.80
2023-05-08T04:51:01.871Z,214.09
2023-05-08T04:52:01.850Z,215.96
2023-05-08T04:53:01.883Z,208.33
2023-05-08T04:54:01.837Z,211.44
2023-05-08T04:55:01.843Z,219.38
2023-05-08T04:56:01.885Z,220.64
2023-05-08T04:57:01.895Z,220.35
2023-05-08T04:58:01.839Z,222.56
2023-05-08T04:59:01.823Z,215.80
2023-05-08T05:00:02.707Z,211.12
2023-05-08T05:01:01.892Z,205.28
2023-05-08T05:02:01.933Z,206.93
2023-05-08T05:03:01.860Z,204.80
2023-05-08T05:04:01.840Z,209.91
2023-05-08T05:05:01.833Z,211.61
2023-05-08T05:06:01.754Z,214.11
2023-05-08T05:07:01.762Z,219.64
2023-05-08T05:08:01.830Z,218.95
2023-05-08T05:09:01.765Z,213.50
2023-05-08T05:10:01.740Z,212.82
2023-05-08T05:11:01.740Z,216.54
2023-05-08T05:12:01.751Z,223.36
2023-05-08T05:13:01.765Z,223.81
2023-05-08T05:14:01.799Z,221.08
2023-05-08T05:15:01.769Z,223.00
2023-05-08T05:16:02.314Z,216.03
2023-05-08T05:17:01.702Z,213.76
2023-05-08T05:18:01.750Z,212.65
2023-05-08T05:19:01.743Z,208.85
2023-05-08T05:20:01.687Z,206.24
2023-05-08T05:21:01.764Z,206.25
2023-05-08T05:22:01.775Z,206.86
2023-05-08T05:23:01.806Z,208.50
2023-05-08T05:24:01.778Z,209.36
2023-05-08T05:25:02.236Z,208.64
2023-05-08T05:26:01.853Z,212.73
2023-05-08T05:27:01.997Z,206.69
2023-05-08T05:28:01.965Z,204.72
2023-05-08T05:29:02.027Z,207.76
2023-05-08T05:30:02.109Z,211.21
2023-05-08T05:31:02.860Z,210.06
2023-05-08T05:32:02.308Z,210.93
2023-05-08T05:33:02.796Z,210.37
2023-05-08T05:34:02.287Z,213.20
2023-05-08T05:35:02.241Z,215.41
2023-05-08T05:36:02.270Z,212.64
2023-05-08T05:37:02.321Z,207.56
2023-05-08T05:38:02.752Z,212.59
2023-05-08T05:39:02.459Z,218.68
2023-05-08T05:40:02.397Z,217.91
2023-05-08T05:41:02.404Z,215.61
2023-05-08T05:42:02.445Z,214.34
2023-05-08T05:43:02.565Z,219.90
2023-05-08T05:44:02.526Z,222.51
2023-05-08T05:45:02.548Z,226.63
2023-05-08T05:46:02.597Z,233.12
2023-05-08T05:47:02.648Z,235.63
2023-05-08T05:48:02.637Z,237.81
2023-05-08T05:49:02.671Z,245.17
2023-05-08T05:50:04.387Z,253.05
2023-05-08T05:51:02.764Z,256.64
2023-05-08T05:52:02.792Z,250.92
2023-05-08T05:53:02.853Z,250.38
2023-05-08T05:54:02.901Z,250.22
2023-05-08T05:55:03.291Z,252.30
2023-05-08T05:56:02.860Z,249.83
2023-05-08T05:57:02.998Z,229.63
2023-05-08T05:58:02.950Z,222.58
2023-05-08T05:59:02.973Z,209.04
2023-05-08T06:00:03.231Z,205.68
2023-05-08T06:01:03.048Z,204.92
2023-05-08T06:02:03.134Z,207.55
2023-05-08T06:03:03.936Z,210.03
2023-05-08T06:04:03.382Z,211.37
2023-05-08T06:05:03.253Z,212.78
2023-05-08T06:06:05.369Z,216.67
2023-05-08T06:07:03.281Z,221.48
2023-05-08T06:08:03.349Z,219.99
2023-05-08T06:09:03.413Z,212.85
2023-05-08T06:10:03.449Z,215.93
2023-05-08T06:11:03.522Z,217.30
2023-05-08T06:12:03.483Z,218.80
2023-05-08T06:13:03.588Z,217.43
2023-05-08T06:14:03.540Z,214.89
2023-05-08T06:15:03.560Z,211.59
2023-05-08T06:16:03.594Z,211.08
2023-05-08T06:17:03.732Z,214.02
2023-05-08T06:18:03.885Z,215.11
2023-05-08T06:19:03.768Z,211.95
2023-05-08T06:20:03.778Z,212.91
2023-05-08T06:21:03.849Z,211.66
2023-05-08T06:22:03.873Z,213.31
2023-05-08T06:23:03.906Z,217.92
2023-05-08T06:24:03.905Z,218.98
2023-05-08T06:25:03.924Z,221.01
2023-05-08T06:26:03.927Z,221.37
2023-05-08T06:27:04.021Z,214.09
2023-05-08T06:28:03.989Z,215.16
2023-05-08T06:29:04.001Z,218.43
2023-05-08T06:30:04.056Z,223.16
2023-05-08T06:31:04.110Z,224.28
2023-05-08T06:32:04.124Z,222.22
2023-05-08T06:33:04.169Z,224.21
2023-05-08T06:34:04.442Z,219.14
2023-05-08T06:35:04.233Z,220.55
2023-05-08T06:36:04.188Z,224.21
2023-05-08T06:37:04.200Z,221.65
2023-05-08T06:38:04.788Z,215.59
2023-05-08T06:39:04.248Z,212.68
2023-05-08T06:40:12.029Z,210.14
2023-05-08T06:41:05.246Z,205.06
2023-05-08T06:42:04.279Z,208.36
2023-05-08T06:43:04.242Z,210.30
2023-05-08T06:44:05.287Z,210.64
2023-05-08T06:45:04.255Z,210.63
2023-05-08T06:46:04.295Z,210.01
2023-05-08T06:47:04.215Z,210.75
2023-05-08T06:48:04.275Z,211.39
2023-05-08T06:49:04.212Z,212.58
2023-05-08T06:50:04.249Z,213.81
2023-05-08T06:51:04.184Z,211.02
2023-05-08T06:52:04.253Z,216.78
2023-05-08T06:53:04.302Z,218.15
2023-05-08T06:54:04.359Z,220.88
2023-05-08T06:55:04.274Z,223.16
2023-05-08T06:56:04.200Z,221.77
2023-05-08T06:57:04.158Z,218.15
2023-05-08T06:58:04.176Z,220.73
2023-05-08T06:59:08.606Z,219.89
2023-05-08T07:00:05.205Z,210.96
2023-05-08T07:01:04.247Z,210.85
2023-05-08T07:02:04.200Z,214.23
2023-05-08T07:03:04.308Z,215.30
2023-05-08T07:04:04.158Z,216.95
2023-05-08T07:05:04.294Z,211.63
2023-05-08T07:06:04.193Z,201.31
2023-05-08T07:07:04.139Z,197.54
2023-05-08T07:08:04.131Z,197.07
2023-05-08T07:09:04.121Z,200.70
2023-05-08T07:10:05.911Z,204.24
2023-05-08T07:11:04.106Z,210.57
2023-05-08T07:12:04.080Z,206.94
2023-05-08T07:13:04.128Z,199.55
2023-05-08T07:14:04.070Z,195.17
2023-05-08T07:15:13.807Z,196.53
2023-05-08T07:16:05.088Z,196.60
2023-05-08T07:17:04.061Z,197.49
2023-05-08T07:18:04.101Z,201.22
2023-05-08T07:19:04.034Z,204.88
2023-05-08T07:20:04.039Z,199.19
2023-05-08T07:21:03.988Z,198.11
2023-05-08T07:22:04.103Z,201.62
2023-05-08T07:23:04.022Z,199.84
2023-05-08T07:24:03.989Z,193.08
2023-05-08T07:25:03.977Z,187.90
2023-05-08T07:26:03.974Z,188.19
2023-05-08T07:27:04.005Z,187.77
2023-05-08T07:28:03.976Z,179.44
2023-05-08T07:29:03.996Z,183.03
2023-05-08T07:30:04.054Z,182.87
2023-05-08T07:31:04.056Z,183.17
2023-05-08T07:32:04.238Z,186.28
2023-05-08T07:33:04.195Z,187.79
2023-05-08T07:34:04.302Z,184.65
2023-05-08T07:35:04.249Z,182.18
2023-05-08T07:36:04.216Z,184.96
2023-05-08T07:37:04.257Z,187.59
2023-05-08T07:38:04.766Z,187.60
2023-05-08T07:39:04.311Z,187.16
2023-05-08T07:40:04.340Z,186.38
2023-05-08T07:41:04.531Z,186.74
2023-05-08T07:42:06.309Z,188.34
2023-05-08T07:43:04.755Z,186.00
2023-05-08T07:44:04.427Z,185.99
2023-05-08T07:45:05.256Z,187.11
2023-05-08T07:46:07.269Z,186.06
2023-05-08T07:47:05.282Z,189.57
2023-05-08T07:48:04.523Z,182.70
2023-05-08T07:49:05.235Z,178.75
2023-05-08T07:50:04.527Z,180.69
2023-05-08T07:51:04.530Z,183.70
2023-05-08T07:52:04.702Z,187.81
2023-05-08T07:53:04.465Z,181.75
2023-05-08T07:54:07.273Z,178.10
2023-05-08T07:55:04.830Z,177.27
2023-05-08T07:56:04.430Z,173.42
2023-05-08T07:57:04.400Z,172.53
2023-05-08T07:58:04.409Z,174.87
2023-05-08T07:59:04.449Z,178.63
2023-05-08T08:00:04.407Z,183.59
2023-05-08T08:01:04.416Z,180.73
2023-05-08T08:02:04.449Z,185.60
2023-05-08T08:03:04.458Z,185.70
2023-05-08T08:04:04.400Z,184.27
2023-05-08T08:05:04.477Z,186.86
2023-05-08T08:06:04.366Z,182.98
2023-05-08T08:07:04.320Z,181.07
2023-05-08T08:08:04.351Z,181.20
2023-05-08T08:09:04.328Z,182.46
2023-05-08T08:10:04.489Z,186.42
2023-05-08T08:11:04.296Z,190.05
2023-05-08T08:12:04.333Z,182.49
2023-05-08T08:13:04.358Z,180.03
2023-05-08T08:14:04.322Z,183.12
2023-05-08T08:15:04.309Z,183.67
2023-05-08T08:16:04.293Z,185.24
2023-05-08T08:17:04.329Z,188.57
2023-05-08T08:18:04.277Z,193.75
2023-05-08T08:19:04.821Z,192.17
2023-05-08T08:20:04.263Z,184.63
2023-05-08T08:21:04.300Z,176.59
2023-05-08T08:22:04.315Z,171.41
2023-05-08T08:23:04.212Z,170.95
2023-05-08T08:24:04.260Z,170.00
2023-05-08T08:25:04.289Z,176.53
2023-05-08T08:26:04.191Z,178.83
2023-05-08T08:27:04.192Z,178.96
2023-05-08T08:28:04.252Z,179.68
2023-05-08T08:29:04.265Z,188.16
2023-05-08T08:30:15.611Z,183.43
2023-05-08T08:31:05.205Z,174.47
2023-05-08T08:32:04.271Z,169.98
2023-05-08T08:33:04.323Z,168.73
2023-05-08T08:34:04.186Z,170.38
2023-05-08T08:35:04.137Z,178.55
2023-05-08T08:36:04.112Z,176.08
2023-05-08T08:37:04.205Z,170.13
2023-05-08T08:38:04.144Z,169.14
2023-05-08T08:39:04.129Z,176.10
2023-05-08T08:40:04.119Z,170.32
2023-05-08T08:41:04.192Z,158.34
2023-05-08T08:42:04.274Z,152.19
2023-05-08T08:43:04.770Z,155.29
2023-05-08T08:44:04.278Z,162.61
2023-05-08T08:45:04.384Z,169.01
2023-05-08T08:46:04.399Z,173.20
2023-05-08T08:47:04.414Z,176.33
2023-05-08T08:48:04.560Z,168.41
2023-05-08T08:49:04.609Z,167.68
2023-05-08T08:50:04.740Z,167.65
2023-05-08T08:51:04.535Z,166.79
2023-05-08T08:52:04.552Z,168.64
2023-05-08T08:53:04.682Z,169.72
2023-05-08T08:54:04.662Z,167.58
2023-05-08T08:55:04.616Z,167.45
2023-05-08T08:56:04.633Z,171.85
2023-05-08T08:57:04.786Z,167.09
2023-05-08T08:58:04.768Z,162.08
2023-05-08T08:59:04.706Z,162.48
2023-05-08T09:00:04.761Z,151.96
2023-05-08T09:01:04.770Z,149.87
2023-05-08T09:02:04.808Z,144.70
2023-05-08T09:03:04.940Z,145.32
2023-05-08T09:04:04.896Z,141.52
2023-05-08T09:05:04.886Z,138.61
2023-05-08T09:06:04.864Z,130.60
2023-05-08T09:07:04.882Z,123.38
2023-05-08T09:08:04.904Z,120.98
2023-05-08T09:09:04.985Z,120.73
2023-05-08T09:10:04.897Z,121.09
2023-05-08T09:11:05.309Z,119.00
2023-05-08T09:12:05.814Z,122.28
2023-05-08T09:13:05.025Z,131.77
2023-05-08T09:14:04.951Z,135.56
2023-05-08T09:15:05.065Z,137.93
2023-05-08T09:16:05.000Z,136.05
2023-05-08T09:17:04.966Z,135.14
2023-05-08T09:18:05.127Z,136.61
2023-05-08T09:19:05.105Z,138.73
2023-05-08T09:20:05.096Z,139.51
2023-05-08T09:21:05.136Z,147.64
2023-05-08T09:22:05.286Z,154.49
2023-05-08T09:23:05.265Z,159.16
2023-05-08T09:24:05.324Z,154.14
2023-05-08T09:25:05.415Z,151.17
2023-05-08T09:26:05.400Z,148.60
2023-05-08T09:27:05.451Z,140.39
2023-05-08T09:28:05.526Z,127.34
2023-05-08T09:29:05.529Z,122.54
2023-05-08T09:30:05.597Z,131.26
2023-05-08T09:31:05.631Z,141.12
2023-05-08T09:32:05.771Z,142.49
2023-05-08T09:33:05.972Z,143.63
2023-05-08T09:34:05.784Z,138.36
2023-05-08T09:35:05.882Z,138.47
2023-05-08T09:36:06.265Z,140.36
2023-05-08T09:37:06.048Z,144.55
2023-05-08T09:38:05.953Z,137.96
2023-05-08T09:39:06.058Z,115.46
2023-05-08T09:40:06.864Z,96.62
2023-05-08T09:41:06.208Z,95.79
2023-05-08T09:42:06.140Z,103.19
2023-05-08T09:43:06.398Z,110.57
2023-05-08T09:44:06.803Z,112.05
2023-05-08T09:45:06.197Z,107.12
2023-05-08T09:46:06.220Z,95.20
2023-05-08T09:47:06.206Z,84.75
2023-05-08T09:48:06.258Z,75.43
2023-05-08T09:49:06.248Z,70.10
2023-05-08T09:50:06.339Z,69.72
2023-05-08T09:51:06.415Z,66.09
2023-05-08T09:52:08.512Z,62.03
2023-05-08T09:53:06.794Z,55.29
2023-05-08T09:54:08.324Z,56.97
2023-05-08T09:55:06.756Z,64.54
2023-05-08T09:56:09.397Z,74.47
2023-05-08T09:57:06.632Z,93.21
2023-05-08T09:58:06.796Z,94.59
2023-05-08T09:59:06.663Z,86.42
2023-05-08T10:00:06.654Z,77.77
2023-05-08T10:01:06.661Z,72.28
2023-05-08T10:02:07.314Z,56.24
2023-05-08T10:03:06.660Z,49.82
2023-05-08T10:04:06.772Z,46.65
2023-05-08T10:05:06.647Z,49.20
2023-05-08T10:06:06.575Z,54.63
2023-05-08T10:07:06.556Z,47.97
2023-05-08T10:08:06.535Z,53.19
2023-05-08T10:09:06.550Z,62.57
2023-05-08T10:10:06.721Z,67.26
2023-05-08T10:11:06.581Z,70.43
2023-05-08T10:12:06.595Z,74.45
2023-05-08T10:13:06.750Z,81.06
2023-05-08T10:14:06.508Z,78.46
2023-05-08T10:15:06.504Z,81.74
2023-05-08T10:16:06.535Z,73.36
2023-05-08T10:17:06.560Z,74.75
2023-05-08T10:18:06.604Z,83.30
2023-05-08T10:19:06.459Z,98.76
2023-05-08T10:20:06.496Z,109.54
2023-05-08T10:21:06.470Z,108.68
2023-05-08T10:22:06.471Z,114.06
2023-05-08T10:23:06.436Z,119.88
2023-05-08T10:24:06.594Z,134.59
2023-05-08T10:25:06.448Z,140.70
2023-05-08T10:26:06.440Z,140.23
2023-05-08T10:27:07.888Z,142.89
2023-05-08T10:28:06.552Z,142.69
2023-05-08T10:29:06.405Z,143.43
2023-05-08T10:30:06.408Z,146.87
2023-05-08T10:31:07.357Z,145.53
2023-05-08T10:32:06.400Z,144.37
2023-05-08T10:33:06.570Z,137.08
2023-05-08T10:34:06.472Z,123.91
2023-05-08T10:35:06.454Z,108.38
2023-05-08T10:36:06.376Z,104.36
2023-05-08T10:37:06.367Z,93.48
2023-05-08T10:38:06.403Z,81.21
2023-05-08T10:39:06.359Z,107.38
2023-05-08T10:40:06.447Z,93.25
2023-05-08T10:41:06.388Z,85.05
2023-05-08T10:42:06.420Z,85.22
2023-05-08T10:43:06.419Z,96.99
2023-05-08T10:44:06.386Z,96.86
2023-05-08T10:45:06.339Z,80.39
2023-05-08T10:46:06.455Z,68.26
2023-05-08T10:47:06.428Z,70.75
2023-05-08T10:48:06.415Z,74.39
2023-05-08T10:49:06.314Z,43.33
2023-05-08T10:50:06.322Z,43.99
2023-05-08T10:51:06.346Z,37.83
2023-05-08T10:52:06.313Z,28.84
2023-05-08T10:53:06.452Z,30.88
2023-05-08T10:54:06.525Z,35.50
2023-05-08T10:55:06.480Z,54.70
2023-05-08T10:56:06.490Z,41.89
2023-05-08T10:57:06.509Z,24.80
2023-05-08T10:58:06.953Z,25.51
2023-05-08T10:59:06.654Z,29.64
2023-05-08T11:00:06.722Z,41.23
2023-05-08T11:01:07.713Z,15.61
2023-05-08T11:02:06.825Z,6.88
2023-05-08T11:03:14.158Z,6.67
2023-05-08T11:04:08.419Z,6.69
2023-05-08T11:05:06.767Z,8.91
2023-05-08T11:06:06.731Z,14.01
2023-05-08T11:07:06.799Z,23.38
2023-05-08T11:08:06.758Z,28.35
2023-05-08T11:09:06.781Z,27.06
2023-05-08T11:10:07.324Z,35.61
2023-05-08T11:11:07.317Z,44.54
2023-05-08T11:12:06.772Z,59.76
2023-05-08T11:13:07.437Z,84.93
2023-05-08T11:14:06.799Z,103.44
2023-05-08T11:15:06.908Z,93.91
2023-05-08T11:16:06.879Z,56.73
2023-05-08T11:17:06.933Z,47.08
2023-05-08T11:18:07.025Z,47.56
2023-05-08T11:19:06.955Z,59.41
2023-05-08T11:20:07.320Z,59.92
2023-05-08T11:21:07.318Z,60.71
2023-05-08T11:22:07.937Z,72.75
2023-05-08T11:23:07.032Z,74.73
2023-05-08T11:24:08.006Z,57.26
2023-05-08T11:25:07.897Z,56.32
2023-05-08T11:26:07.221Z,74.04
2023-05-08T11:27:07.180Z,65.47
2023-05-08T11:28:07.281Z,68.25
2023-05-08T11:29:07.224Z,68.80
2023-05-08T11:30:07.278Z,77.95
2023-05-08T11:31:07.352Z,78.82
2023-05-08T11:32:07.374Z,84.67
2023-05-08T11:33:07.417Z,92.70
2023-05-08T11:34:07.393Z,71.02
2023-05-08T11:35:07.425Z,72.40
2023-05-08T11:36:07.467Z,82.17
2023-05-08T11:37:07.467Z,94.17
2023-05-08T11:38:07.484Z,102.79
2023-05-08T11:39:07.493Z,117.54
2023-05-08T11:40:07.560Z,116.75
2023-05-08T11:41:07.571Z,114.36
2023-05-08T11:42:07.628Z,124.82
2023-05-08T11:43:08.437Z,136.38
2023-05-08T11:44:07.673Z,142.45
2023-05-08T11:45:07.748Z,134.17
2023-05-08T11:46:07.747Z,127.03
2023-05-08T11:47:07.932Z,128.33
2023-05-08T11:48:07.857Z,137.92
2023-05-08T11:49:07.831Z,122.66
2023-05-08T11:50:07.921Z,117.87
2023-05-08T11:51:07.892Z,126.26
2023-05-08T11:52:07.939Z,141.21
2023-05-08T11:53:08.058Z,146.14
2023-05-08T11:54:08.044Z,147.62
2023-05-08T11:55:08.015Z,139.67
2023-05-08T11:56:08.062Z,133.55
2023-05-08T11:57:08.087Z,140.53
2023-05-08T11:58:08.100Z,137.94
2023-05-08T11:59:08.202Z,133.85
2023-05-08T12:00:08.166Z,136.99
2023-05-08T12:01:08.306Z,153.98
2023-05-08T12:02:09.515Z,178.31
2023-05-08T12:03:08.381Z,274.31
2023-05-08T12:04:08.597Z,289.24
2023-05-08T12:05:08.460Z,272.82
2023-05-08T12:06:08.350Z,274.30
2023-05-08T12:07:08.452Z,255.35
2023-05-08T12:08:08.444Z,237.24
2023-05-08T12:09:08.493Z,226.91
2023-05-08T12:10:08.526Z,218.39
2023-05-08T12:11:08.567Z,203.48
2023-05-08T12:12:08.593Z,192.07
2023-05-08T12:13:08.667Z,211.74
2023-05-08T12:14:08.769Z,193.65
2023-05-08T12:15:08.668Z,189.45
2023-05-08T12:16:08.661Z,180.12
2023-05-08T12:17:08.798Z,177.97
2023-05-08T12:18:08.784Z,174.51
2023-05-08T12:19:08.768Z,169.67
2023-05-08T12:20:08.844Z,164.55
2023-05-08T12:21:08.856Z,190.09
2023-05-08T12:22:08.902Z,161.44
2023-05-08T12:23:08.894Z,140.21
2023-05-08T12:24:08.916Z,142.40
2023-05-08T12:25:09.926Z,142.30
2023-05-08T12:26:09.922Z,134.17
2023-05-08T12:27:09.107Z,141.78
2023-05-08T12:28:08.995Z,152.31
2023-05-08T12:29:09.038Z,146.39
2023-05-08T12:30:09.063Z,167.33
2023-05-08T12:31:09.200Z,165.88
2023-05-08T12:32:09.109Z,157.21